sensor_id;sensor_type;location;lat;lon;timestamp;P1;durP1;ratioP1;P2;durP2;ratioP2
20954;SDS011;10636;19.390;-99.256;2023-02-22T00:00:56;8.45;;;5.40;;
20954;SDS011;10636;19.390;-99.256;2023-02-22T00:03:34;6.15;;;5.07;;
20954;SDS011;10636;19.390;-99.256;2023-02-22T00:06:04;7.95;;;5.20;;
20954;SDS011;10636;19.390;-99.256;2023-02-22T00:08:33;9.52;;;4.93;;
20954;SDS011;10636;19.390;-99.256;2023-02-22T00:11:03;6.72;;;5.40;;
20954;SDS011;10636;19.390;-99.256;2023-02-22T00:13:33;9.50;;;5.22;;
20954;SDS011;10636;19.390;-99.256;2023-02-22T00:16:05;9.57;;;5.47;;
20954;SDS011;10636;19.390;-99.256;2023-02-22T00:18:39;6.80;;;5.10;;
20954;SDS011;10636;19.390;-99.256;2023-02-22T00:21:09;9.60;;;5.47;;
20954;SDS011;10636;19.390;-99.256;2023-02-22T00:23:39;8.30;;;5.65;;
20954;SDS011;10636;19.390;-99.256;2023-02-22T00:26:11;10.20;;;5.40;;
20954;SDS011;10636;19.390;-99.256;2023-02-22T00:28:43;8.25;;;5.20;;
20954;SDS011;10636;19.390;-99.256;2023-02-22T00:31:12;10.65;;;5.70;;
20954;SDS011;10636;19.390;-99.256;2023-02-22T00:33:43;7.90;;;5.63;;
20954;SDS011;10636;19.390;-99.256;2023-02-22T00:36:11;6.63;;;5.68;;
20954;SDS011;10636;19.390;-99.256;2023-02-22T00:38:40;6.30;;;5.60;;
20954;SDS011;10636;19.390;-99.256;2023-02-22T00:41:09;6.90;;;5.55;;
20954;SDS011;10636;19.390;-99.256;2023-02-22T00:43:38;9.40;;;5.95;;
20954;SDS011;10636;19.390;-99.256;2023-02-22T00:46:07;9.18;;;5.70;;
20954;SDS011;10636;19.390;-99.256;2023-02-22T00:48:36;10.57;;;6.00;;
20954;SDS011;10636;19.390;-99.256;2023-02-22T00:51:06;8.32;;;5.80;;
20954;SDS011;10636;19.390;-99.256;2023-02-22T00:53:35;8.18;;;5.95;;
20954;SDS011;10636;19.390;-99.256;2023-02-22T00:56:03;7.95;;;5.95;;
20954;SDS011;10636;19.390;-99.256;2023-02-22T00:58:32;8.55;;;6.03;;
20954;SDS011;10636;19.390;-99.256;2023-02-22T01:01:01;9.63;;;5.78;;
20954;SDS011;10636;19.390;-99.256;2023-02-22T01:03:29;10.10;;;5.80;;
20954;SDS011;10636;19.390;-99.256;2023-02-22T01:05:59;7.28;;;5.75;;
20954;SDS011;10636;19.390;-99.256;2023-02-22T01:08:30;12.63;;;6.07;;
20954;SDS011;10636;19.390;-99.256;2023-02-22T01:10:58;7.28;;;5.57;;
20954;SDS011;10636;19.390;-99.256;2023-02-22T01:13:27;6.15;;;5.55;;
20954;SDS011;10636;19.390;-99.256;2023-02-22T01:15:55;7.90;;;5.30;;
20954;SDS011;10636;19.390;-99.256;2023-02-22T01:18:25;8.32;;;5.43;;
20954;SDS011;10636;19.390;-99.256;2023-02-22T01:20:54;6.70;;;5.60;;
20954;SDS011;10636;19.390;-99.256;2023-02-22T01:23:23;6.82;;;5.40;;
20954;SDS011;10636;19.390;-99.256;2023-02-22T01:25:53;5.95;;;5.05;;
20954;SDS011;10636;19.390;-99.256;2023-02-22T01:28:22;5.78;;;4.95;;
20954;SDS011;10636;19.390;-99.256;2023-02-22T01:30:51;6.55;;;5.03;;
20954;SDS011;10636;19.390;-99.256;2023-02-22T01:33:21;5.80;;;4.60;;
20954;SDS011;10636;19.390;-99.256;2023-02-22T01:35:50;7.32;;;4.72;;
20954;SDS011;10636;19.390;-99.256;2023-02-22T01:38:18;6.82;;;5.00;;
20954;SDS011;10636;19.390;-99.256;2023-02-22T01:40:48;6.00;;;5.13;;
20954;SDS011;10636;19.390;-99.256;2023-02-22T01:43:20;7.22;;;5.07;;
20954;SDS011;10636;19.390;-99.256;2023-02-22T01:45:53;5.90;;;4.82;;
20954;SDS011;10636;19.390;-99.256;2023-02-22T01:48:27;7.65;;;4.88;;
20954;SDS011;10636;19.390;-99.256;2023-02-22T01:51:09;7.03;;;4.72;;
20954;SDS011;10636;19.390;-99.256;2023-02-22T01:53:42;5.43;;;4.53;;
20954;SDS011;10636;19.390;-99.256;2023-02-22T01:56:14;5.90;;;4.63;;
20954;SDS011;10636;19.390;-99.256;2023-02-22T01:58:47;5.13;;;4.50;;
20954;SDS011;10636;19.390;-99.256;2023-02-22T02:01:19;4.95;;;4.47;;
20954;SDS011;10636;19.390;-99.256;2023-02-22T02:03:49;5.43;;;4.32;;
20954;SDS011;10636;19.390;-99.256;2023-02-22T02:06:22;5.45;;;4.30;;
20954;SDS011;10636;19.390;-99.256;2023-02-22T02:08:54;6.05;;;4.20;;
20954;SDS011;10636;19.390;-99.256;2023-02-22T02:11:27;4.75;;;4.35;;
20954;SDS011;10636;19.390;-99.256;2023-02-22T02:13:57;5.05;;;4.20;;
20954;SDS011;10636;19.390;-99.256;2023-02-22T02:16:34;4.72;;;4.32;;
20954;SDS011;10636;19.390;-99.256;2023-02-22T02:19:07;4.68;;;4.28;;
20954;SDS011;10636;19.390;-99.256;2023-02-22T02:21:41;5.57;;;3.80;;
20954;SDS011;10636;19.390;-99.256;2023-02-22T02:27:34;5.03;;;4.53;;
20954;SDS011;10636;19.390;-99.256;2023-02-22T02:30:31;7.25;;;4.60;;
20954;SDS011;10636;19.390;-99.256;2023-02-22T02:33:18;5.80;;;5.20;;
20954;SDS011;10636;19.390;-99.256;2023-02-22T02:35:53;6.50;;;5.65;;
20954;SDS011;10636;19.390;-99.256;2023-02-22T02:38:31;6.30;;;5.35;;
20954;SDS011;10636;19.390;-99.256;2023-02-22T02:41:07;6.35;;;5.15;;
20954;SDS011;10636;19.390;-99.256;2023-02-22T02:43:41;5.50;;;5.00;;
20954;SDS011;10636;19.390;-99.256;2023-02-22T02:46:17;5.60;;;4.97;;
20954;SDS011;10636;19.390;-99.256;2023-02-22T02:48:52;5.50;;;4.68;;
20954;SDS011;10636;19.390;-99.256;2023-02-22T02:51:26;4.90;;;4.40;;
20954;SDS011;10636;19.390;-99.256;2023-02-22T02:53:58;4.97;;;4.47;;
20954;SDS011;10636;19.390;-99.256;2023-02-22T02:56:29;4.65;;;4.25;;
20954;SDS011;10636;19.390;-99.256;2023-02-22T02:58:57;4.72;;;4.28;;
20954;SDS011;10636;19.390;-99.256;2023-02-22T03:01:31;5.25;;;4.00;;
20954;SDS011;10636;19.390;-99.256;2023-02-22T03:04:22;4.78;;;3.65;;
20954;SDS011;10636;19.390;-99.256;2023-02-22T03:07:05;3.88;;;3.58;;
20954;SDS011;10636;19.390;-99.256;2023-02-22T03:09:51;5.07;;;3.75;;
20954;SDS011;10636;19.390;-99.256;2023-02-22T03:12:35;4.43;;;3.75;;
20954;SDS011;10636;19.390;-99.256;2023-02-22T03:15:13;4.13;;;3.67;;
20954;SDS011;10636;19.390;-99.256;2023-02-22T03:17:53;4.38;;;3.40;;
20954;SDS011;10636;19.390;-99.256;2023-02-22T03:20:34;4.80;;;3.58;;
20954;SDS011;10636;19.390;-99.256;2023-02-22T03:23:10;7.38;;;3.63;;
20954;SDS011;10636;19.390;-99.256;2023-02-22T03:25:50;5.20;;;4.00;;
20954;SDS011;10636;19.390;-99.256;2023-02-22T03:28:22;3.67;;;3.35;;
20954;SDS011;10636;19.390;-99.256;2023-02-22T03:31:00;5.27;;;3.48;;
20954;SDS011;10636;19.390;-99.256;2023-02-22T03:33:34;4.45;;;3.70;;
20954;SDS011;10636;19.390;-99.256;2023-02-22T03:36:11;4.25;;;3.65;;
20954;SDS011;10636;19.390;-99.256;2023-02-22T03:38:46;3.78;;;3.40;;
20954;SDS011;10636;19.390;-99.256;2023-02-22T03:41:20;4.28;;;3.88;;
20954;SDS011;10636;19.390;-99.256;2023-02-22T03:43:51;3.92;;;3.38;;
20954;SDS011;10636;19.390;-99.256;2023-02-22T03:46:25;3.88;;;3.47;;
20954;SDS011;10636;19.390;-99.256;2023-02-22T03:48:57;5.65;;;3.50;;
20954;SDS011;10636;19.390;-99.256;2023-02-22T03:51:31;3.95;;;3.55;;
20954;SDS011;10636;19.390;-99.256;2023-02-22T03:54:00;4.40;;;3.40;;
20954;SDS011;10636;19.390;-99.256;2023-02-22T03:56:30;3.78;;;3.40;;
20954;SDS011;10636;19.390;-99.256;2023-02-22T03:59:02;5.55;;;3.60;;
20954;SDS011;10636;19.390;-99.256;2023-02-22T04:01:33;5.13;;;3.85;;
20954;SDS011;10636;19.390;-99.256;2023-02-22T04:04:02;3.80;;;3.47;;
20954;SDS011;10636;19.390;-99.256;2023-02-22T04:06:32;4.15;;;3.63;;
20954;SDS011;10636;19.390;-99.256;2023-02-22T04:09:01;5.07;;;3.80;;
20954;SDS011;10636;19.390;-99.256;2023-02-22T04:11:31;4.10;;;3.70;;
20954;SDS011;10636;19.390;-99.256;2023-02-22T04:13:59;4.50;;;3.78;;
20954;SDS011;10636;19.390;-99.256;2023-02-22T04:16:28;6.03;;;3.80;;
20954;SDS011;10636;19.390;-99.256;2023-02-22T04:18:56;3.78;;;3.47;;
20954;SDS011;10636;19.390;-99.256;2023-02-22T04:21:25;4.90;;;3.60;;
20954;SDS011;10636;19.390;-99.256;2023-02-22T04:23:55;4.20;;;3.67;;
20954;SDS011;10636;19.390;-99.256;2023-02-22T04:26:24;4.07;;;3.67;;
20954;SDS011;10636;19.390;-99.256;2023-02-22T04:28:53;4.30;;;3.58;;
20954;SDS011;10636;19.390;-99.256;2023-02-22T04:31:21;6.60;;;4.20;;
20954;SDS011;10636;19.390;-99.256;2023-02-22T04:33:50;4.30;;;3.90;;
20954;SDS011;10636;19.390;-99.256;2023-02-22T04:36:19;4.20;;;3.80;;
20954;SDS011;10636;19.390;-99.256;2023-02-22T04:38:48;3.70;;;3.40;;
20954;SDS011;10636;19.390;-99.256;2023-02-22T04:41:18;5.85;;;3.90;;
20954;SDS011;10636;19.390;-99.256;2023-02-22T04:43:46;4.40;;;4.00;;
20954;SDS011;10636;19.390;-99.256;2023-02-22T04:46:15;4.60;;;4.10;;
20954;SDS011;10636;19.390;-99.256;2023-02-22T04:48:44;3.97;;;3.63;;
20954;SDS011;10636;19.390;-99.256;2023-02-22T04:51:13;4.32;;;3.80;;
20954;SDS011;10636;19.390;-99.256;2023-02-22T04:53:42;4.57;;;3.67;;
20954;SDS011;10636;19.390;-99.256;2023-02-22T04:56:10;4.78;;;3.70;;
20954;SDS011;10636;19.390;-99.256;2023-02-22T04:58:40;4.70;;;4.28;;
20954;SDS011;10636;19.390;-99.256;2023-02-22T05:01:09;3.80;;;3.50;;
20954;SDS011;10636;19.390;-99.256;2023-02-22T05:03:38;4.28;;;3.88;;
20954;SDS011;10636;19.390;-99.256;2023-02-22T05:06:07;3.88;;;3.58;;
20954;SDS011;10636;19.390;-99.256;2023-02-22T05:08:36;4.50;;;3.65;;
20954;SDS011;10636;19.390;-99.256;2023-02-22T05:11:05;3.70;;;3.40;;
20954;SDS011;10636;19.390;-99.256;2023-02-22T05:13:34;4.10;;;3.70;;
20954;SDS011;10636;19.390;-99.256;2023-02-22T05:16:05;4.45;;;3.50;;
20954;SDS011;10636;19.390;-99.256;2023-02-22T05:18:34;4.35;;;3.95;;
20954;SDS011;10636;19.390;-99.256;2023-02-22T05:21:02;4.00;;;3.60;;
20954;SDS011;10636;19.390;-99.256;2023-02-22T05:23:31;4.20;;;3.80;;
20954;SDS011;10636;19.390;-99.256;2023-02-22T05:26:00;4.13;;;3.72;;
20954;SDS011;10636;19.390;-99.256;2023-02-22T05:28:29;3.95;;;3.55;;
20954;SDS011;10636;19.390;-99.256;2023-02-22T05:30:57;4.55;;;3.60;;
20954;SDS011;10636;19.390;-99.256;2023-02-22T05:33:27;4.20;;;3.80;;
20954;SDS011;10636;19.390;-99.256;2023-02-22T05:35:56;3.97;;;3.53;;
20954;SDS011;10636;19.390;-99.256;2023-02-22T05:38:24;5.28;;;3.75;;
20954;SDS011;10636;19.390;-99.256;2023-02-22T05:40:53;4.25;;;3.75;;
20954;SDS011;10636;19.390;-99.256;2023-02-22T05:43:22;4.07;;;3.78;;
20954;SDS011;10636;19.390;-99.256;2023-02-22T05:45:50;4.18;;;3.63;;
20954;SDS011;10636;19.390;-99.256;2023-02-22T05:48:20;4.05;;;3.50;;
20954;SDS011;10636;19.390;-99.256;2023-02-22T05:50:50;3.78;;;3.47;;
20954;SDS011;10636;19.390;-99.256;2023-02-22T05:53:19;3.80;;;3.50;;
20954;SDS011;10636;19.390;-99.256;2023-02-22T05:55:48;3.50;;;3.20;;
20954;SDS011;10636;19.390;-99.256;2023-02-22T05:58:16;3.72;;;3.42;;
20954;SDS011;10636;19.390;-99.256;2023-02-22T06:00:45;5.32;;;3.35;;
20954;SDS011;10636;19.390;-99.256;2023-02-22T06:03:14;3.65;;;3.35;;
20954;SDS011;10636;19.390;-99.256;2023-02-22T06:05:43;5.68;;;3.67;;
20954;SDS011;10636;19.390;-99.256;2023-02-22T06:08:13;3.83;;;3.42;;
20954;SDS011;10636;19.390;-99.256;2023-02-22T06:10:42;3.75;;;3.42;;
20954;SDS011;10636;19.390;-99.256;2023-02-22T06:13:10;4.00;;;3.60;;
20954;SDS011;10636;19.390;-99.256;2023-02-22T06:15:39;4.15;;;3.70;;
20954;SDS011;10636;19.390;-99.256;2023-02-22T06:18:08;5.57;;;3.60;;
20954;SDS011;10636;19.390;-99.256;2023-02-22T06:20:36;4.28;;;3.10;;
20954;SDS011;10636;19.390;-99.256;2023-02-22T06:23:05;4.22;;;3.20;;
20954;SDS011;10636;19.390;-99.256;2023-02-22T06:25:35;3.67;;;3.38;;
20954;SDS011;10636;19.390;-99.256;2023-02-22T06:28:03;5.63;;;3.35;;
20954;SDS011;10636;19.390;-99.256;2023-02-22T06:30:32;4.05;;;3.03;;
20954;SDS011;10636;19.390;-99.256;2023-02-22T06:33:01;3.53;;;3.22;;
20954;SDS011;10636;19.390;-99.256;2023-02-22T06:35:29;3.42;;;3.13;;
20954;SDS011;10636;19.390;-99.256;2023-02-22T06:37:58;3.38;;;3.08;;
20954;SDS011;10636;19.390;-99.256;2023-02-22T06:40:26;3.70;;;3.40;;
20954;SDS011;10636;19.390;-99.256;2023-02-22T06:42:57;3.30;;;3.00;;
20954;SDS011;10636;19.390;-99.256;2023-02-22T06:45:26;3.13;;;2.90;;
20954;SDS011;10636;19.390;-99.256;2023-02-22T06:47:54;3.63;;;3.30;;
20954;SDS011;10636;19.390;-99.256;2023-02-22T06:50:23;3.33;;;3.13;;
20954;SDS011;10636;19.390;-99.256;2023-02-22T06:52:54;3.47;;;2.80;;
20954;SDS011;10636;19.390;-99.256;2023-02-22T06:55:24;3.20;;;2.78;;
20954;SDS011;10636;19.390;-99.256;2023-02-22T06:57:55;3.00;;;2.80;;
20954;SDS011;10636;19.390;-99.256;2023-02-22T07:00:25;3.25;;;2.80;;
20954;SDS011;10636;19.390;-99.256;2023-02-22T07:02:55;3.10;;;2.85;;
20954;SDS011;10636;19.390;-99.256;2023-02-22T07:05:25;3.00;;;2.80;;
20954;SDS011;10636;19.390;-99.256;2023-02-22T07:07:54;3.38;;;2.80;;
20954;SDS011;10636;19.390;-99.256;2023-02-22T07:10:29;3.05;;;2.75;;
20954;SDS011;10636;19.390;-99.256;2023-02-22T07:13:00;3.75;;;2.72;;
20954;SDS011;10636;19.390;-99.256;2023-02-22T07:15:30;2.60;;;2.40;;
20954;SDS011;10636;19.390;-99.256;2023-02-22T07:17:59;3.35;;;2.83;;
20954;SDS011;10636;19.390;-99.256;2023-02-22T07:20:29;2.85;;;2.65;;
20954;SDS011;10636;19.390;-99.256;2023-02-22T07:22:58;3.63;;;2.95;;
20954;SDS011;10636;19.390;-99.256;2023-02-22T07:25:27;3.00;;;2.80;;
20954;SDS011;10636;19.390;-99.256;2023-02-22T07:27:55;2.50;;;2.30;;
20954;SDS011;10636;19.390;-99.256;2023-02-22T07:30:26;3.53;;;2.70;;
20954;SDS011;10636;19.390;-99.256;2023-02-22T07:32:57;3.42;;;2.80;;
20954;SDS011;10636;19.390;-99.256;2023-02-22T07:35:27;3.30;;;3.00;;
20954;SDS011;10636;19.390;-99.256;2023-02-22T07:37:56;2.78;;;2.58;;
20954;SDS011;10636;19.390;-99.256;2023-02-22T07:40:25;3.03;;;2.78;;
20954;SDS011;10636;19.390;-99.256;2023-02-22T07:42:55;2.90;;;2.70;;
20954;SDS011;10636;19.390;-99.256;2023-02-22T07:45:27;3.08;;;2.80;;
20954;SDS011;10636;19.390;-99.256;2023-02-22T07:47:57;3.10;;;2.80;;
20954;SDS011;10636;19.390;-99.256;2023-02-22T07:50:27;2.80;;;2.60;;
20954;SDS011;10636;19.390;-99.256;2023-02-22T07:52:57;2.80;;;2.60;;
20954;SDS011;10636;19.390;-99.256;2023-02-22T07:55:27;3.75;;;2.70;;
20954;SDS011;10636;19.390;-99.256;2023-02-22T07:57:57;2.90;;;2.70;;
20954;SDS011;10636;19.390;-99.256;2023-02-22T08:00:29;3.10;;;2.67;;
20954;SDS011;10636;19.390;-99.256;2023-02-22T08:02:59;3.00;;;2.80;;
20954;SDS011;10636;19.390;-99.256;2023-02-22T08:05:28;2.95;;;2.70;;
20954;SDS011;10636;19.390;-99.256;2023-02-22T08:07:58;3.80;;;2.75;;
20954;SDS011;10636;19.390;-99.256;2023-02-22T08:10:27;2.88;;;2.63;;
20954;SDS011;10636;19.390;-99.256;2023-02-22T08:12:57;3.00;;;2.70;;
20954;SDS011;10636;19.390;-99.256;2023-02-22T08:15:26;3.00;;;2.80;;
20954;SDS011;10636;19.390;-99.256;2023-02-22T08:17:57;2.80;;;2.60;;
20954;SDS011;10636;19.390;-99.256;2023-02-22T08:20:27;3.00;;;2.65;;
20954;SDS011;10636;19.390;-99.256;2023-02-22T08:22:56;3.10;;;2.80;;
20954;SDS011;10636;19.390;-99.256;2023-02-22T08:25:26;2.55;;;2.45;;
20954;SDS011;10636;19.390;-99.256;2023-02-22T08:27:56;3.50;;;2.88;;
20954;SDS011;10636;19.390;-99.256;2023-02-22T08:30:26;3.20;;;2.67;;
20954;SDS011;10636;19.390;-99.256;2023-02-22T08:32:59;3.38;;;2.70;;
20954;SDS011;10636;19.390;-99.256;2023-02-22T08:35:28;2.92;;;2.72;;
20954;SDS011;10636;19.390;-99.256;2023-02-22T08:37:59;2.80;;;2.60;;
20954;SDS011;10636;19.390;-99.256;2023-02-22T08:40:29;3.22;;;2.92;;
20954;SDS011;10636;19.390;-99.256;2023-02-22T08:42:59;3.00;;;2.80;;
20954;SDS011;10636;19.390;-99.256;2023-02-22T08:45:29;2.95;;;2.72;;
20954;SDS011;10636;19.390;-99.256;2023-02-22T08:47:58;2.97;;;2.67;;
20954;SDS011;10636;19.390;-99.256;2023-02-22T08:50:27;2.97;;;2.65;;
20954;SDS011;10636;19.390;-99.256;2023-02-22T08:52:58;2.83;;;2.63;;
20954;SDS011;10636;19.390;-99.256;2023-02-22T08:55:28;3.38;;;2.80;;
20954;SDS011;10636;19.390;-99.256;2023-02-22T08:57:59;2.80;;;2.60;;
20954;SDS011;10636;19.390;-99.256;2023-02-22T09:00:29;3.00;;;2.70;;
20954;SDS011;10636;19.390;-99.256;2023-02-22T09:02:59;3.45;;;2.70;;
20954;SDS011;10636;19.390;-99.256;2023-02-22T09:05:28;3.20;;;2.80;;
20954;SDS011;10636;19.390;-99.256;2023-02-22T09:07:57;3.03;;;2.72;;
20954;SDS011;10636;19.390;-99.256;2023-02-22T09:10:27;3.10;;;2.90;;
20954;SDS011;10636;19.390;-99.256;2023-02-22T09:12:57;2.90;;;2.70;;
20954;SDS011;10636;19.390;-99.256;2023-02-22T09:15:27;3.05;;;2.85;;
20954;SDS011;10636;19.390;-99.256;2023-02-22T09:17:57;2.95;;;2.75;;
20954;SDS011;10636;19.390;-99.256;2023-02-22T09:20:26;3.17;;;2.97;;
20954;SDS011;10636;19.390;-99.256;2023-02-22T09:22:55;3.70;;;2.90;;
20954;SDS011;10636;19.390;-99.256;2023-02-22T09:25:25;3.22;;;2.83;;
20954;SDS011;10636;19.390;-99.256;2023-02-22T09:27:54;3.78;;;2.92;;
20954;SDS011;10636;19.390;-99.256;2023-02-22T09:30:23;3.28;;;3.03;;
20954;SDS011;10636;19.390;-99.256;2023-02-22T09:32:58;3.35;;;2.85;;
20954;SDS011;10636;19.390;-99.256;2023-02-22T09:35:28;3.00;;;2.80;;
20954;SDS011;10636;19.390;-99.256;2023-02-22T09:38:00;2.88;;;2.58;;
20954;SDS011;10636;19.390;-99.256;2023-02-22T09:40:31;3.20;;;2.90;;
20954;SDS011;10636;19.390;-99.256;2023-02-22T09:43:14;2.95;;;2.75;;
20954;SDS011;10636;19.390;-99.256;2023-02-22T09:45:55;3.22;;;3.03;;
20954;SDS011;10636;19.390;-99.256;2023-02-22T09:48:38;3.40;;;3.10;;
20954;SDS011;10636;19.390;-99.256;2023-02-22T09:51:18;3.15;;;2.95;;
20954;SDS011;10636;19.390;-99.256;2023-02-22T09:53:52;4.25;;;2.83;;
20954;SDS011;10636;19.390;-99.256;2023-02-22T09:56:25;3.38;;;3.08;;
20954;SDS011;10636;19.390;-99.256;2023-02-22T09:58:58;3.13;;;2.85;;
20954;SDS011;10636;19.390;-99.256;2023-02-22T10:01:30;3.15;;;2.80;;
20954;SDS011;10636;19.390;-99.256;2023-02-22T10:04:08;3.25;;;3.00;;
20954;SDS011;10636;19.390;-99.256;2023-02-22T10:06:54;3.20;;;2.95;;
20954;SDS011;10636;19.390;-99.256;2023-02-22T10:09:33;2.97;;;2.78;;
20954;SDS011;10636;19.390;-99.256;2023-02-22T10:12:08;3.20;;;2.90;;
20954;SDS011;10636;19.390;-99.256;2023-02-22T10:14:50;3.60;;;3.08;;
20954;SDS011;10636;19.390;-99.256;2023-02-22T10:17:31;3.10;;;2.80;;
20954;SDS011;10636;19.390;-99.256;2023-02-22T10:20:13;3.30;;;3.00;;
20954;SDS011;10636;19.390;-99.256;2023-02-22T10:22:53;3.10;;;2.90;;
20954;SDS011;10636;19.390;-99.256;2023-02-22T10:25:32;3.05;;;2.67;;
20954;SDS011;10636;19.390;-99.256;2023-02-22T10:28:07;3.42;;;3.13;;
20954;SDS011;10636;19.390;-99.256;2023-02-22T10:30:40;3.20;;;2.90;;
20954;SDS011;10636;19.390;-99.256;2023-02-22T10:33:11;3.10;;;2.80;;
20954;SDS011;10636;19.390;-99.256;2023-02-22T10:35:45;3.42;;;2.70;;
20954;SDS011;10636;19.390;-99.256;2023-02-22T10:38:16;4.28;;;3.25;;
20954;SDS011;10636;19.390;-99.256;2023-02-22T10:40:49;3.20;;;3.00;;
20954;SDS011;10636;19.390;-99.256;2023-02-22T10:43:23;2.90;;;2.70;;
20954;SDS011;10636;19.390;-99.256;2023-02-22T10:45:52;4.15;;;2.92;;
20954;SDS011;10636;19.390;-99.256;2023-02-22T10:48:25;3.20;;;2.90;;
20954;SDS011;10636;19.390;-99.256;2023-02-22T10:51:00;3.20;;;2.90;;
20954;SDS011;10636;19.390;-99.256;2023-02-22T10:53:30;3.50;;;3.15;;
20954;SDS011;10636;19.390;-99.256;2023-02-22T10:56:06;3.20;;;2.90;;
20954;SDS011;10636;19.390;-99.256;2023-02-22T10:58:39;4.28;;;3.00;;
20954;SDS011;10636;19.390;-99.256;2023-02-22T11:04:03;3.25;;;2.95;;
20954;SDS011;10636;19.390;-99.256;2023-02-22T11:06:39;3.05;;;2.85;;
20954;SDS011;10636;19.390;-99.256;2023-02-22T11:09:10;3.13;;;2.88;;
20954;SDS011;10636;19.390;-99.256;2023-02-22T11:11:41;3.65;;;3.20;;
20954;SDS011;10636;19.390;-99.256;2023-02-22T11:14:11;3.40;;;3.20;;
20954;SDS011;10636;19.390;-99.256;2023-02-22T11:16:41;4.07;;;3.28;;
20954;SDS011;10636;19.390;-99.256;2023-02-22T11:19:17;3.63;;;3.20;;
20954;SDS011;10636;19.390;-99.256;2023-02-22T11:21:50;3.88;;;3.25;;
20954;SDS011;10636;19.390;-99.256;2023-02-22T11:24:22;3.13;;;2.92;;
20954;SDS011;10636;19.390;-99.256;2023-02-22T11:26:53;3.45;;;3.10;;
20954;SDS011;10636;19.390;-99.256;2023-02-22T11:29:25;3.50;;;3.20;;
20954;SDS011;10636;19.390;-99.256;2023-02-22T11:31:57;3.38;;;3.08;;
20954;SDS011;10636;19.390;-99.256;2023-02-22T11:34:33;4.70;;;3.30;;
20954;SDS011;10636;19.390;-99.256;2023-02-22T11:37:18;3.30;;;3.00;;
20954;SDS011;10636;19.390;-99.256;2023-02-22T11:40:05;3.50;;;3.20;;
20954;SDS011;10636;19.390;-99.256;2023-02-22T11:42:42;3.65;;;3.35;;
20954;SDS011;10636;19.390;-99.256;2023-02-22T11:45:11;3.50;;;3.13;;
20954;SDS011;10636;19.390;-99.256;2023-02-22T11:47:45;4.82;;;3.10;;
20954;SDS011;10636;19.390;-99.256;2023-02-22T11:50:22;5.68;;;4.13;;
20954;SDS011;10636;19.390;-99.256;2023-02-22T11:53:00;6.60;;;4.30;;
20954;SDS011;10636;19.390;-99.256;2023-02-22T11:55:42;5.65;;;3.88;;
20954;SDS011;10636;19.390;-99.256;2023-02-22T11:58:23;5.18;;;4.50;;
20954;SDS011;10636;19.390;-99.256;2023-02-22T12:01:04;4.28;;;3.88;;
20954;SDS011;10636;19.390;-99.256;2023-02-22T12:06:48;7.82;;;6.05;;
20954;SDS011;10636;19.390;-99.256;2023-02-22T12:09:27;6.10;;;5.50;;
20954;SDS011;10636;19.390;-99.256;2023-02-22T12:12:06;7.15;;;5.85;;
20954;SDS011;10636;19.390;-99.256;2023-02-22T12:14:45;6.57;;;5.60;;
20954;SDS011;10636;19.390;-99.256;2023-02-22T12:17:28;6.22;;;5.63;;
20954;SDS011;10636;19.390;-99.256;2023-02-22T12:20:08;6.45;;;5.55;;
20954;SDS011;10636;19.390;-99.256;2023-02-22T12:22:52;6.63;;;5.40;;
20954;SDS011;10636;19.390;-99.256;2023-02-22T12:25:27;7.45;;;5.30;;
20954;SDS011;10636;19.390;-99.256;2023-02-22T12:28:01;6.97;;;5.65;;
20954;SDS011;10636;19.390;-99.256;2023-02-22T12:30:38;6.57;;;5.15;;
20954;SDS011;10636;19.390;-99.256;2023-02-22T12:33:12;5.80;;;5.20;;
20954;SDS011;10636;19.390;-99.256;2023-02-22T12:35:43;6.40;;;4.93;;
20954;SDS011;10636;19.390;-99.256;2023-02-22T12:38:19;5.20;;;4.65;;
20954;SDS011;10636;19.390;-99.256;2023-02-22T12:40:57;5.30;;;4.80;;
20954;SDS011;10636;19.390;-99.256;2023-02-22T12:43:35;6.38;;;4.80;;
20954;SDS011;10636;19.390;-99.256;2023-02-22T12:46:10;6.88;;;4.80;;
20954;SDS011;10636;19.390;-99.256;2023-02-22T12:48:44;6.45;;;4.65;;
20954;SDS011;10636;19.390;-99.256;2023-02-22T12:51:22;6.90;;;4.63;;
20954;SDS011;10636;19.390;-99.256;2023-02-22T12:53:55;6.05;;;4.30;;
20954;SDS011;10636;19.390;-99.256;2023-02-22T12:56:33;4.68;;;4.22;;
20954;SDS011;10636;19.390;-99.256;2023-02-22T12:59:07;5.78;;;4.13;;
20954;SDS011;10636;19.390;-99.256;2023-02-22T13:01:44;5.53;;;4.28;;
20954;SDS011;10636;19.390;-99.256;2023-02-22T13:04:18;4.32;;;3.90;;
20954;SDS011;10636;19.390;-99.256;2023-02-22T13:06:52;6.00;;;4.20;;
20954;SDS011;10636;19.390;-99.256;2023-02-22T13:12:35;4.70;;;4.10;;
20954;SDS011;10636;19.390;-99.256;2023-02-22T13:15:13;5.65;;;4.20;;
20954;SDS011;10636;19.390;-99.256;2023-02-22T13:17:49;5.97;;;4.60;;
20954;SDS011;10636;19.390;-99.256;2023-02-22T13:20:28;4.68;;;4.22;;
20954;SDS011;10636;19.390;-99.256;2023-02-22T13:23:02;6.07;;;4.25;;
20954;SDS011;10636;19.390;-99.256;2023-02-22T13:25:38;5.28;;;4.30;;
20954;SDS011;10636;19.390;-99.256;2023-02-22T13:28:19;7.03;;;4.22;;
20954;SDS011;10636;19.390;-99.256;2023-02-22T13:31:03;5.93;;;4.10;;
20954;SDS011;10636;19.390;-99.256;2023-02-22T13:33:49;6.20;;;4.63;;
20954;SDS011;10636;19.390;-99.256;2023-02-22T13:36:40;6.78;;;4.65;;
20954;SDS011;10636;19.390;-99.256;2023-02-22T13:42:33;6.72;;;4.30;;
20954;SDS011;10636;19.390;-99.256;2023-02-22T13:45:24;5.82;;;4.30;;
20954;SDS011;10636;19.390;-99.256;2023-02-22T13:48:16;5.45;;;4.30;;
20954;SDS011;10636;19.390;-99.256;2023-02-22T13:51:02;5.20;;;4.40;;
20954;SDS011;10636;19.390;-99.256;2023-02-22T13:53:40;8.18;;;4.60;;
20954;SDS011;10636;19.390;-99.256;2023-02-22T13:56:18;6.63;;;4.50;;
20954;SDS011;10636;19.390;-99.256;2023-02-22T13:58:50;6.38;;;4.50;;
20954;SDS011;10636;19.390;-99.256;2023-02-22T14:01:39;6.15;;;4.50;;
20954;SDS011;10636;19.390;-99.256;2023-02-22T14:04:18;6.47;;;4.97;;
20954;SDS011;10636;19.390;-99.256;2023-02-22T14:06:48;7.57;;;4.70;;
20954;SDS011;10636;19.390;-99.256;2023-02-22T14:09:39;6.53;;;4.78;;
20954;SDS011;10636;19.390;-99.256;2023-02-22T14:15:15;6.78;;;4.65;;
20954;SDS011;10636;19.390;-99.256;2023-02-22T14:17:48;8.55;;;5.47;;
20954;SDS011;10636;19.390;-99.256;2023-02-22T14:20:25;6.45;;;5.40;;
20954;SDS011;10636;19.390;-99.256;2023-02-22T14:25:56;7.65;;;5.63;;
20954;SDS011;10636;19.390;-99.256;2023-02-22T14:28:39;8.85;;;5.50;;
20954;SDS011;10636;19.390;-99.256;2023-02-22T14:31:14;8.32;;;5.82;;
20954;SDS011;10636;19.390;-99.256;2023-02-22T14:33:53;7.35;;;5.55;;
20954;SDS011;10636;19.390;-99.256;2023-02-22T14:36:25;9.23;;;5.88;;
20954;SDS011;10636;19.390;-99.256;2023-02-22T14:39:02;8.50;;;6.22;;
20954;SDS011;10636;19.390;-99.256;2023-02-22T14:41:37;10.07;;;6.35;;
20954;SDS011;10636;19.390;-99.256;2023-02-22T14:44:12;9.55;;;6.50;;
20954;SDS011;10636;19.390;-99.256;2023-02-22T14:46:46;11.18;;;6.40;;
20954;SDS011;10636;19.390;-99.256;2023-02-22T14:49:17;11.63;;;6.97;;
20954;SDS011;10636;19.390;-99.256;2023-02-22T14:51:50;8.93;;;6.70;;
20954;SDS011;10636;19.390;-99.256;2023-02-22T14:54:24;9.38;;;6.88;;
20954;SDS011;10636;19.390;-99.256;2023-02-22T14:57:01;9.20;;;6.93;;
20954;SDS011;10636;19.390;-99.256;2023-02-22T14:59:49;8.65;;;6.72;;
20954;SDS011;10636;19.390;-99.256;2023-02-22T15:02:24;11.10;;;6.93;;
20954;SDS011;10636;19.390;-99.256;2023-02-22T15:04:54;13.90;;;7.50;;
20954;SDS011;10636;19.390;-99.256;2023-02-22T15:07:24;14.50;;;7.38;;
20954;SDS011;10636;19.390;-99.256;2023-02-22T15:10:05;11.27;;;7.25;;
20954;SDS011;10636;19.390;-99.256;2023-02-22T15:12:44;12.77;;;7.25;;
20954;SDS011;10636;19.390;-99.256;2023-02-22T15:15:19;11.50;;;7.32;;